createdAt,value
2022-10-01T00:01:17.655Z,19.75
2022-10-01T00:03:45.315Z,19.83
2022-10-01T00:06:17.586Z,19.94
2022-10-01T00:08:49.317Z,19.97
2022-10-01T00:11:22.267Z,19.72
2022-10-01T00:13:49.917Z,19.58
2022-10-01T00:16:21.703Z,19.55
2022-10-01T00:18:48.805Z,19.67
2022-10-01T00:21:20.292Z,19.85
2022-10-01T00:23:47.984Z,19.88
2022-10-01T00:26:23.320Z,19.58
2022-10-01T00:28:55.738Z,19.62
2022-10-01T00:31:23.049Z,19.44
2022-10-01T00:33:53.688Z,19.62
2022-10-01T00:36:21.133Z,19.56
2022-10-01T00:38:48.429Z,19.78
2022-10-01T00:41:17.882Z,19.57
2022-10-01T00:43:48.035Z,19.22
2022-10-01T00:46:45.381Z,19.39
2022-10-01T00:49:26.796Z,19.45
2022-10-01T00:52:01.743Z,19.43
2022-10-01T00:54:31.467Z,19.35
2022-10-01T00:57:01.265Z,19.32
2022-10-01T00:59:29.476Z,19.12
2022-10-01T01:01:56.625Z,19.29
2022-10-01T01:04:23.688Z,19.39
2022-10-01T01:06:57.876Z,19.14
2022-10-01T01:09:30.597Z,19.24
2022-10-01T01:12:18.671Z,19.06
2022-10-01T01:14:58.031Z,19.17
2022-10-01T01:17:34.017Z,19.14
2022-10-01T01:20:07.740Z,19.19
2022-10-01T01:22:41.545Z,19.12
2022-10-01T01:25:22.084Z,19.11
2022-10-01T01:28:17.396Z,19.10
2022-10-01T01:30:45.043Z,18.98
2022-10-01T01:33:17.710Z,19.18
2022-10-01T01:35:53.155Z,19.12
2022-10-01T01:38:28.135Z,19.05
2022-10-01T01:40:58.959Z,18.51
2022-10-01T01:43:31.487Z,18.62
2022-10-01T01:46:00.940Z,18.78
2022-10-01T01:48:30.981Z,18.55
2022-10-01T01:51:04.583Z,18.76
2022-10-01T01:53:32.240Z,18.83
2022-10-01T01:56:00.457Z,18.82
2022-10-01T01:58:28.278Z,19.04
2022-10-01T02:00:55.407Z,18.93
2022-10-01T02:03:29.204Z,19.02
2022-10-01T02:06:14.202Z,18.92
2022-10-01T02:08:51.395Z,18.90
2022-10-01T02:11:40.721Z,18.64
2022-10-01T02:14:12.675Z,18.53
2022-10-01T02:17:01.548Z,18.39
2022-10-01T02:19:57.253Z,18.41
2022-10-01T02:22:48.371Z,18.34
2022-10-01T02:25:17.563Z,18.47
2022-10-01T02:28:00.578Z,18.54
2022-10-01T02:30:35.622Z,18.56
2022-10-01T02:33:05.069Z,18.29
2022-10-01T02:35:35.270Z,17.79
2022-10-01T02:38:05.730Z,17.89
2022-10-01T02:40:36.526Z,18.21
2022-10-01T02:43:37.328Z,18.27
2022-10-01T02:46:28.482Z,18.09
2022-10-01T02:48:57.139Z,17.83
2022-10-01T02:51:36.399Z,18.14
2022-10-01T02:54:29.725Z,18.26
2022-10-01T02:57:16.739Z,17.88
2022-10-01T02:59:43.590Z,17.61
2022-10-01T03:02:11.336Z,17.30
2022-10-01T03:04:38.604Z,17.18
2022-10-01T03:07:05.706Z,17.08
2022-10-01T03:09:34.599Z,17.48
2022-10-01T03:12:01.980Z,17.29
2022-10-01T03:14:29.303Z,17.31
2022-10-01T03:16:56.157Z,17.51
2022-10-01T03:19:22.970Z,17.66
2022-10-01T03:21:49.759Z,17.80
2022-10-01T03:24:16.579Z,17.75
2022-10-01T03:26:43.386Z,17.73
2022-10-01T03:29:10.192Z,17.97
2022-10-01T03:31:38.356Z,18.15
2022-10-01T03:34:05.552Z,17.73
2022-10-01T03:36:32.458Z,17.60
2022-10-01T03:38:59.277Z,17.65
2022-10-01T03:41:26.367Z,17.87
2022-10-01T03:43:57.103Z,17.76
2022-10-01T03:46:26.547Z,17.80
2022-10-01T03:48:53.349Z,17.98
2022-10-01T03:51:20.866Z,17.92
2022-10-01T03:53:48.150Z,17.91
2022-10-01T03:56:15.698Z,17.82
2022-10-01T03:58:42.893Z,17.81
2022-10-01T04:01:09.676Z,17.75
2022-10-01T04:03:36.819Z,17.62
2022-10-01T04:06:03.799Z,17.44
2022-10-01T04:08:30.592Z,17.60
2022-10-01T04:10:57.371Z,17.73
2022-10-01T04:13:24.226Z,17.57
2022-10-01T04:15:51.006Z,17.20
2022-10-01T04:18:19.370Z,17.17
2022-10-01T04:20:46.139Z,16.74
2022-10-01T04:23:13.129Z,16.79
2022-10-01T04:25:40.048Z,17.12
2022-10-01T04:28:10.437Z,17.31
2022-10-01T04:30:40.151Z,17.01
2022-10-01T04:33:09.648Z,16.92
2022-10-01T04:35:36.662Z,17.29
2022-10-01T04:38:12.488Z,17.48
2022-10-01T04:40:39.407Z,17.69
2022-10-01T04:43:10.377Z,17.78
2022-10-01T04:45:38.208Z,17.86
2022-10-01T04:48:05.605Z,18.09
2022-10-01T04:50:33.139Z,18.15
2022-10-01T04:53:00.014Z,17.73
2022-10-01T04:55:26.890Z,17.81
2022-10-01T04:57:53.825Z,17.74
2022-10-01T05:00:26.649Z,17.60
2022-10-01T05:02:53.955Z,17.76
2022-10-01T05:05:23.786Z,18.09
2022-10-01T05:07:50.835Z,18.28
2022-10-01T05:10:20.303Z,18.63
2022-10-01T05:12:48.129Z,18.54
2022-10-01T05:15:16.820Z,18.77
2022-10-01T05:17:43.856Z,18.80
2022-10-01T05:20:20.029Z,19.10
2022-10-01T05:22:49.002Z,19.01
2022-10-01T05:25:17.436Z,19.11
2022-10-01T05:27:44.753Z,18.99
2022-10-01T05:30:14.239Z,19.41
2022-10-01T05:32:41.935Z,19.32
2022-10-01T05:35:08.904Z,19.50
2022-10-01T05:37:36.099Z,19.57
2022-10-01T05:40:04.000Z,19.76
2022-10-01T05:42:30.795Z,19.71
2022-10-01T05:44:57.704Z,19.61
2022-10-01T05:47:24.541Z,19.93
2022-10-01T05:49:51.318Z,19.76
2022-10-01T05:52:18.114Z,19.92
2022-10-01T05:54:45.044Z,20.01
2022-10-01T05:57:11.997Z,20.32
2022-10-01T05:59:38.773Z,20.28
2022-10-01T06:02:05.737Z,20.26
2022-10-01T06:04:33.468Z,20.25
2022-10-01T06:07:02.520Z,20.38
2022-10-01T06:09:29.404Z,20.71
2022-10-01T06:11:56.244Z,21.08
2022-10-01T06:14:23.197Z,21.33
2022-10-01T06:16:53.917Z,21.47
2022-10-01T06:19:20.839Z,21.40
2022-10-01T06:21:47.641Z,21.61
2022-10-01T06:24:14.588Z,21.60
2022-10-01T06:26:41.636Z,21.83
2022-10-01T06:29:08.459Z,21.88
2022-10-01T06:31:35.423Z,22.08
2022-10-01T06:34:02.464Z,22.24
2022-10-01T06:36:29.704Z,22.64
2022-10-01T06:38:56.645Z,22.69
2022-10-01T06:41:23.769Z,22.75
2022-10-01T06:43:50.543Z,22.78
2022-10-01T06:46:17.536Z,22.89
2022-10-01T06:48:44.310Z,22.73
2022-10-01T06:51:11.218Z,22.92
2022-10-01T06:53:38.099Z,23.33
2022-10-01T06:56:08.336Z,23.16
2022-10-01T06:58:35.215Z,23.61
2022-10-01T07:01:03.856Z,23.89
2022-10-01T07:03:31.703Z,24.05
2022-10-01T07:06:03.942Z,24.20
2022-10-01T07:08:30.782Z,24.14
2022-10-01T07:11:02.887Z,24.52
2022-10-01T07:13:29.944Z,24.49
2022-10-01T07:15:57.157Z,24.66
2022-10-01T07:18:24.217Z,24.63
2022-10-01T07:20:51.040Z,24.63
2022-10-01T07:23:18.333Z,24.86
2022-10-01T07:25:45.651Z,25.04
2022-10-01T07:28:18.649Z,25.28
2022-10-01T07:30:59.732Z,25.33
2022-10-01T07:33:27.149Z,25.54
2022-10-01T07:35:54.238Z,25.45
2022-10-01T07:38:21.170Z,25.40
2022-10-01T07:40:52.458Z,25.57
2022-10-01T07:43:19.287Z,25.76
2022-10-01T07:46:05.398Z,26.13
2022-10-01T07:48:32.480Z,26.31
2022-10-01T07:50:59.260Z,26.15
2022-10-01T07:53:26.144Z,26.13
2022-10-01T07:55:53.061Z,26.28
2022-10-01T07:58:24.008Z,26.55
2022-10-01T08:00:56.099Z,26.71
2022-10-01T08:03:23.091Z,26.98
2022-10-01T08:05:50.394Z,26.90
2022-10-01T08:08:17.200Z,27.26
2022-10-01T08:10:44.189Z,27.12
2022-10-01T08:13:16.139Z,27.01
2022-10-01T08:15:50.679Z,27.36
2022-10-01T08:18:17.621Z,27.35
2022-10-01T08:20:44.555Z,27.65
2022-10-01T08:23:14.859Z,27.67
2022-10-01T08:25:43.206Z,27.54
2022-10-01T08:28:11.406Z,27.61
2022-10-01T08:30:39.896Z,27.48
2022-10-01T08:33:07.438Z,27.59
2022-10-01T08:35:34.423Z,27.64
2022-10-01T08:38:05.802Z,28.14
2022-10-01T08:40:43.669Z,28.26
2022-10-01T08:43:30.709Z,28.20
2022-10-01T08:46:14.803Z,28.28
2022-10-01T08:49:02.937Z,28.78
2022-10-01T08:51:46.336Z,28.39
2022-10-01T08:54:22.163Z,28.45
2022-10-01T08:56:49.150Z,28.41
2022-10-01T08:59:38.443Z,28.05
2022-10-01T09:02:35.842Z,27.34
2022-10-01T09:05:16.655Z,27.39
2022-10-01T09:08:02.110Z,27.36
2022-10-01T09:10:28.872Z,27.43
2022-10-01T09:12:58.746Z,27.77
2022-10-01T09:15:41.889Z,28.16
2022-10-01T09:18:23.844Z,28.72
2022-10-01T09:20:59.059Z,29.12
2022-10-01T09:23:32.075Z,29.12
2022-10-01T09:26:00.139Z,29.34
2022-10-01T09:28:31.925Z,29.68
2022-10-01T09:31:24.095Z,29.32
2022-10-01T09:34:14.078Z,29.22
2022-10-01T09:37:04.800Z,29.15
2022-10-01T09:39:42.766Z,29.09
2022-10-01T09:42:09.634Z,29.20
2022-10-01T09:44:37.696Z,29.69
2022-10-01T09:47:17.578Z,29.96
2022-10-01T09:49:46.286Z,29.72
2022-10-01T09:52:20.729Z,29.61
2022-10-01T09:54:53.650Z,29.34
2022-10-01T09:57:27.193Z,29.86
2022-10-01T10:00:17.445Z,30.13
2022-10-01T10:02:49.227Z,30.03
2022-10-01T10:05:40.937Z,30.31
2022-10-01T10:08:15.722Z,30.13
2022-10-01T10:10:58.505Z,31.14
2022-10-01T10:13:43.404Z,31.16
2022-10-01T10:16:26.891Z,31.11
2022-10-01T10:19:01.024Z,31.05
2022-10-01T10:21:30.858Z,30.69
2022-10-01T10:24:00.581Z,30.36
2022-10-01T10:26:32.630Z,29.74
2022-10-01T10:29:02.899Z,29.58
2022-10-01T10:31:40.513Z,29.28
2022-10-01T10:34:19.100Z,29.42
2022-10-01T10:36:47.181Z,29.31
2022-10-01T10:39:22.533Z,29.64
2022-10-01T10:41:52.180Z,29.52
2022-10-01T10:44:21.624Z,29.47
2022-10-01T10:46:51.180Z,29.28
2022-10-01T10:49:29.594Z,29.41
2022-10-01T10:51:58.422Z,29.45
2022-10-01T10:54:37.650Z,29.83
2022-10-01T10:57:27.952Z,29.76
2022-10-01T10:59:56.253Z,30.18
2022-10-01T11:02:26.806Z,30.59
2022-10-01T11:04:55.078Z,30.35
2022-10-01T11:07:24.282Z,30.07
2022-10-01T11:10:25.733Z,29.55
2022-10-01T11:13:18.633Z,29.17
2022-10-01T11:15:55.903Z,28.96
2022-10-01T11:19:01.459Z,28.66
2022-10-01T11:21:31.213Z,28.86
2022-10-01T11:24:03.889Z,28.80
2022-10-01T11:26:52.743Z,28.99
2022-10-01T11:29:20.055Z,28.96
2022-10-01T11:32:02.345Z,28.85
2022-10-01T11:34:49.542Z,29.07
2022-10-01T11:37:34.369Z,28.83
2022-10-01T11:40:13.647Z,29.09
2022-10-01T11:42:42.205Z,29.02
2022-10-01T11:45:23.353Z,28.97
2022-10-01T11:47:55.661Z,29.23
2022-10-01T11:50:27.171Z,29.06
2022-10-01T11:53:02.725Z,29.02
2022-10-01T11:55:58.427Z,28.93
2022-10-01T11:58:53.055Z,28.85
2022-10-01T12:01:36.027Z,28.86
2022-10-01T12:04:11.624Z,28.71
2022-10-01T12:06:53.858Z,28.67
2022-10-01T12:09:32.460Z,28.62
2022-10-01T12:12:06.018Z,28.50
2022-10-01T12:15:06.256Z,28.53
2022-10-01T12:17:44.370Z,28.40
2022-10-01T12:20:25.246Z,28.30
2022-10-01T12:22:54.701Z,28.23
2022-10-01T12:25:29.095Z,28.43
2022-10-01T12:28:09.480Z,28.36
2022-10-01T12:30:46.404Z,28.27
2022-10-01T12:33:34.041Z,28.32
2022-10-01T12:36:22.211Z,28.33
2022-10-01T12:39:16.107Z,28.45
2022-10-01T12:42:12.631Z,28.54
2022-10-01T12:44:57.757Z,28.56
2022-10-01T12:47:43.007Z,28.38
2022-10-01T12:50:34.620Z,28.35
2022-10-01T12:53:07.075Z,28.25
2022-10-01T12:55:46.425Z,28.17
2022-10-01T12:58:30.392Z,28.03
2022-10-01T13:01:15.392Z,27.92
2022-10-01T13:04:08.853Z,27.87
2022-10-01T13:06:54.197Z,27.85
2022-10-01T13:09:23.641Z,27.84
2022-10-01T13:12:15.498Z,27.96
2022-10-01T13:14:44.490Z,28.03
2022-10-01T13:17:11.320Z,28.17
2022-10-01T13:19:55.376Z,27.92
2022-10-01T13:22:25.085Z,28.00
2022-10-01T13:25:33.371Z,27.99
2022-10-01T13:28:11.067Z,28.05
2022-10-01T13:31:01.981Z,28.40
2022-10-01T13:33:36.187Z,28.45
2022-10-01T13:36:06.030Z,28.59
2022-10-01T13:38:38.703Z,28.37
2022-10-01T13:41:42.462Z,28.19
2022-10-01T13:44:09.212Z,28.09
2022-10-01T13:46:51.169Z,28.24
2022-10-01T13:49:25.413Z,28.29
2022-10-01T13:51:53.224Z,28.27
2022-10-01T13:54:47.821Z,28.02
2022-10-01T13:57:38.896Z,27.96
2022-10-01T14:00:11.976Z,27.81
2022-10-01T14:02:41.804Z,27.82
2022-10-01T14:05:17.719Z,27.66
2022-10-01T14:07:47.807Z,27.54
2022-10-01T14:10:16.549Z,27.55
2022-10-01T14:13:05.309Z,27.65
2022-10-01T14:15:59.173Z,27.58
2022-10-01T14:18:39.732Z,27.69
2022-10-01T14:21:43.731Z,27.62
2022-10-01T14:24:51.201Z,27.63
2022-10-01T14:27:43.322Z,27.59
2022-10-01T14:30:39.889Z,27.46
2022-10-01T14:33:34.821Z,27.47
2022-10-01T14:36:22.408Z,27.54
2022-10-01T14:38:49.304Z,27.63
2022-10-01T14:41:23.436Z,27.89
2022-10-01T14:43:50.280Z,27.88
2022-10-01T14:46:18.669Z,27.89
2022-10-01T14:48:57.481Z,27.77
2022-10-01T14:51:27.577Z,27.50
2022-10-01T14:53:57.401Z,27.39
2022-10-01T14:56:25.153Z,27.13
2022-10-01T14:59:03.353Z,27.06
2022-10-01T15:01:30.593Z,26.96
2022-10-01T15:03:57.547Z,26.93
2022-10-01T15:06:28.759Z,26.90
2022-10-01T15:09:05.791Z,26.79
2022-10-01T15:11:34.574Z,26.54
2022-10-01T15:14:08.372Z,26.62
2022-10-01T15:16:36.538Z,26.44
2022-10-01T15:19:12.074Z,26.35
2022-10-01T15:21:54.756Z,26.30
2022-10-01T15:24:40.201Z,26.25
2022-10-01T15:27:09.146Z,26.32
2022-10-01T15:29:38.692Z,26.15
2022-10-01T15:32:06.078Z,26.09
2022-10-01T15:34:34.209Z,25.99
2022-10-01T15:37:01.646Z,26.10
2022-10-01T15:39:38.613Z,25.91
2022-10-01T15:42:21.593Z,25.81
2022-10-01T15:44:50.043Z,25.61
2022-10-01T15:47:19.738Z,25.66
2022-10-01T15:50:17.552Z,25.65
2022-10-01T15:52:50.610Z,25.66
2022-10-01T15:55:22.852Z,25.62
2022-10-01T15:58:11.580Z,25.68
2022-10-01T16:00:47.770Z,25.61
2022-10-01T16:03:24.216Z,25.49
2022-10-01T16:05:56.407Z,25.52
2022-10-01T16:08:32.891Z,25.53
2022-10-01T16:11:15.898Z,25.42
2022-10-01T16:13:50.691Z,25.35
2022-10-01T16:16:26.994Z,25.34
2022-10-01T16:18:58.059Z,25.28
2022-10-01T16:21:25.719Z,25.20
2022-10-01T16:23:55.084Z,25.26
2022-10-01T16:26:27.783Z,25.21
2022-10-01T16:28:55.979Z,25.26
2022-10-01T16:31:23.971Z,25.18
2022-10-01T16:33:50.943Z,25.15
2022-10-01T16:36:20.634Z,25.06
2022-10-01T16:38:48.341Z,25.04
2022-10-01T16:41:22.442Z,25.00
2022-10-01T16:43:51.133Z,24.92
2022-10-01T16:46:18.145Z,24.97
2022-10-01T16:48:51.462Z,24.90
2022-10-01T16:51:19.399Z,24.88
2022-10-01T16:53:47.128Z,24.86
2022-10-01T16:56:14.326Z,24.78
2022-10-01T16:58:43.410Z,24.73
2022-10-01T17:01:13.919Z,24.51
2022-10-01T17:03:41.104Z,24.31
2022-10-01T17:06:07.912Z,24.09
2022-10-01T17:08:34.771Z,23.99
2022-10-01T17:11:02.774Z,23.91
2022-10-01T17:13:32.852Z,24.01
2022-10-01T17:16:00.933Z,24.07
2022-10-01T17:18:28.110Z,24.00
2022-10-01T17:20:56.153Z,24.07
2022-10-01T17:23:23.615Z,24.01
2022-10-01T17:25:50.768Z,23.98
2022-10-01T17:28:20.302Z,23.89
2022-10-01T17:30:49.330Z,23.84
2022-10-01T17:33:20.959Z,23.82
2022-10-01T17:35:54.688Z,23.85
2022-10-01T17:38:22.764Z,23.77
2022-10-01T17:40:55.491Z,23.98
2022-10-01T17:43:23.490Z,23.92
2022-10-01T17:45:56.707Z,23.90
2022-10-01T17:48:24.201Z,23.63
2022-10-01T17:51:05.898Z,23.67
2022-10-01T17:53:39.737Z,23.56
2022-10-01T17:56:12.906Z,23.54
2022-10-01T17:58:44.796Z,23.44
2022-10-01T18:01:15.118Z,23.17
2022-10-01T18:03:42.249Z,23.00
2022-10-01T18:06:13.558Z,23.01
2022-10-01T18:08:54.570Z,23.05
2022-10-01T18:11:23.047Z,23.03
2022-10-01T18:13:51.109Z,22.81
2022-10-01T18:16:19.496Z,22.67
2022-10-01T18:21:33.853Z,22.59
2022-10-01T18:24:04.521Z,22.72
2022-10-01T18:26:33.027Z,22.62
2022-10-01T18:29:01.290Z,22.65
2022-10-01T18:31:40.730Z,22.79
2022-10-01T18:34:18.485Z,22.81
2022-10-01T18:37:08.295Z,22.66
2022-10-01T18:39:44.687Z,22.75
2022-10-01T18:42:43.165Z,22.64
2022-10-01T18:45:21.075Z,22.40
2022-10-01T18:48:13.507Z,22.22
2022-10-01T18:50:52.128Z,22.36
2022-10-01T18:54:06.396Z,22.34
2022-10-01T18:56:36.138Z,22.29
2022-10-01T18:59:21.662Z,22.29
2022-10-01T19:02:00.370Z,22.41
2022-10-01T19:05:05.393Z,22.19
2022-10-01T19:07:43.529Z,22.22
2022-10-01T19:10:23.139Z,22.29
2022-10-01T19:12:58.922Z,22.21
2022-10-01T19:15:34.453Z,22.17
2022-10-01T19:18:22.716Z,22.13
2022-10-01T19:21:16.789Z,22.06
2022-10-01T19:24:19.253Z,22.04
2022-10-01T19:27:25.019Z,22.05
2022-10-01T19:30:11.047Z,22.04
2022-10-01T19:32:55.447Z,22.18
2022-10-01T19:35:27.773Z,22.02
2022-10-01T19:38:04.191Z,21.96
2022-10-01T19:40:31.060Z,21.90
2022-10-01T19:43:16.512Z,21.75
2022-10-01T19:46:00.904Z,21.49
2022-10-01T19:48:47.908Z,21.53
2022-10-01T19:51:20.497Z,21.47
2022-10-01T19:53:56.437Z,21.40
2022-10-01T19:56:28.388Z,21.49
2022-10-01T19:58:57.424Z,21.57
2022-10-01T20:01:34.623Z,21.49
2022-10-01T20:04:05.383Z,21.11
2022-10-01T20:06:42.664Z,20.98
2022-10-01T20:09:25.826Z,21.01
2022-10-01T20:11:57.433Z,21.03
2022-10-01T20:14:51.839Z,20.99
2022-10-01T20:17:50.588Z,21.11
2022-10-01T20:20:23.808Z,20.88
2022-10-01T20:22:53.402Z,20.87
2022-10-01T20:26:08.030Z,20.82
2022-10-01T20:29:16.574Z,20.98
2022-10-01T20:32:09.358Z,21.00
2022-10-01T20:34:57.228Z,20.85
2022-10-01T20:37:36.475Z,20.91
2022-10-01T20:40:28.282Z,20.95
2022-10-01T20:43:06.026Z,21.05
2022-10-01T20:45:35.563Z,20.81
2022-10-01T20:48:25.430Z,20.97
2022-10-01T20:50:58.590Z,21.04
2022-10-01T20:53:46.713Z,21.21
2022-10-01T20:56:21.188Z,21.11
2022-10-01T20:59:00.624Z,20.80
2022-10-01T21:01:31.044Z,20.98
2022-10-01T21:04:21.005Z,20.68
2022-10-01T21:06:50.686Z,20.81
2022-10-01T21:09:27.970Z,20.58
2022-10-01T21:12:04.041Z,20.34
2022-10-01T21:14:53.719Z,20.17
2022-10-01T21:17:33.088Z,20.56
2022-10-01T21:20:15.668Z,20.56
2022-10-01T21:22:57.623Z,20.69
2022-10-01T21:25:30.213Z,20.74
2022-10-01T21:28:09.620Z,20.60
2022-10-01T21:31:16.435Z,20.55
2022-10-01T21:33:56.213Z,20.73
2022-10-01T21:36:26.017Z,20.88
2022-10-01T21:38:58.927Z,21.03
2022-10-01T21:41:53.946Z,21.00
2022-10-01T21:44:48.727Z,20.97
2022-10-01T21:48:01.064Z,20.68
2022-10-01T21:50:44.542Z,20.66
2022-10-01T21:53:28.859Z,20.64
2022-10-01T21:56:22.359Z,20.66
2022-10-01T21:59:16.967Z,20.70
2022-10-01T22:02:01.812Z,20.59
2022-10-01T22:04:48.482Z,20.52
2022-10-01T22:07:17.985Z,20.55
2022-10-01T22:09:50.219Z,20.40
2022-10-01T22:12:17.229Z,20.62
2022-10-01T22:14:45.152Z,20.55
2022-10-01T22:17:16.846Z,20.43
2022-10-01T22:19:49.311Z,20.22
2022-10-01T22:22:38.812Z,19.84
2022-10-01T22:25:07.902Z,19.90
2022-10-01T22:28:07.375Z,20.08
2022-10-01T22:30:37.312Z,19.91
2022-10-01T22:33:22.370Z,19.93
2022-10-01T22:36:25.108Z,20.00
2022-10-01T22:38:55.841Z,20.08
2022-10-01T22:41:34.177Z,20.10
2022-10-01T22:44:27.141Z,20.10
2022-10-01T22:47:31.527Z,20.22
2022-10-01T22:50:26.350Z,19.88
2022-10-01T22:52:58.134Z,20.01
2022-10-01T22:55:52.705Z,20.18
2022-10-01T22:58:46.831Z,20.00
2022-10-01T23:01:25.571Z,19.97
2022-10-01T23:03:55.512Z,19.67
2022-10-01T23:06:45.031Z,19.18
2022-10-01T23:09:20.617Z,18.92
2022-10-01T23:12:15.703Z,18.91
2022-10-01T23:14:55.712Z,18.80
2022-10-01T23:17:33.568Z,19.06
2022-10-01T23:20:28.186Z,19.23
2022-10-01T23:23:20.731Z,19.23
2022-10-01T23:26:06.219Z,19.14
2022-10-01T23:28:54.252Z,18.91
2022-10-01T23:31:26.817Z,19.10
2022-10-01T23:33:58.793Z,19.03
2022-10-01T23:36:28.302Z,18.89
2022-10-01T23:39:16.140Z,19.10
2022-10-01T23:42:00.255Z,19.08
2022-10-01T23:44:42.997Z,19.11
2022-10-01T23:47:16.524Z,19.07
2022-10-01T23:49:55.873Z,19.16
2022-10-01T23:52:39.055Z,19.07
2022-10-01T23:55:56.117Z,19.15
2022-10-01T23:58:25.097Z,19.27
